Ana Sayfa
METAR-TAF:

METAR-TAF

Havaalanları :

Selebi-Phikwe, Botsvana

Enlem: 22-03-19S, Boylam: 027-49-13E, yükseklik: 892 m

Güncel hava durumu gözlemi

Rapor saat 07:00 UTC de 29 dakika önce yapıldı.
Rüzgar doğudan 12 kt
Sıcaklık 21°C
Nem 73%
Basınç 1024 hPa
Görüş mesafesi 10 km veya daha fazla
2000 ft yükseklikte çok bulutlu

METAR: FBSP 150700Z 09012KT 9999 OVC020 21/16 Q1024

Saat: 09:29 (07:29 UTC)

Tahmin

Rapor saat 03:00 UTC de 4 saat ve 29 dakika önce yapıldı.
Ayın 15'si saat 06 UTC'den ayın 15'si saat 15 UTC'ye kadar geçerli Tahmin
Rüzgar doğu/kuzeydoğudan 15 kt
Görüş mesafesi 10 km veya daha fazla
1500 m altında bulut yok ve kümülonimbus yok

TAF: FBSP 150300Z 1506/1515 06015KT CAVOK

4.000'den fazla havaalanı için hava durumu gözlemleri ve tahminleri (METAR ve TAF raporları).

Kullanılabilir istasyonlar harita üzerinde sarı ve kırmızı noktalarla gösterilir.

İstasyonun adını görmek için fareyi noktanın üzerinde gezdirin.

Sonrasında hava gözlem ve tahminlerini görmek için tıklayın.

Haritayı değiştirmek için: yaklaştırmak için siyah artı işaretli yeşil düğmeye ve uzaklaştırmak için de eksi işaretli düğmeye hızla tıklayın; bitişik haritalar için yeşil okları kullanın.


METAR-TAF: